Aeroporto :
LOGIN :

Iscrizione | Disclaimer

   EN    FR    IT 

 










Sommario :    VFR   VFR Marginale   IFR   IFR Intensivo   IFR Molto Intensivo
Visibilità : 
Base nubi : 
>= 8 km
>= 3000ft
5 / 8 km
1000 / 3000 ft
1500m / 5 km
500 / 1000 ft
800 / 1500m
200 / 500 ft
< 800m
< 200 ft
Simboli :   Temporali  Nebbia  Neve Forte  Precipitazioni Forti  Vento > 20 kt
SIGMETs :   Varie  Temporali  Ghiacco  Turbolenza  Onda orograficha  Ceneri Vulcaniche






- Altitudine del aeroporto : 157 ft
- Codice IATA : LIL


LFQQ - Lille Lesquin

ULTIMO METAR :
  • 090930Z AUTO 29013KT 9999 SCT021 SCT038 BKN045 08/06 Q1001 TEMPO 31025G40KT 3000 SHRA BKN020CB

METARs OBSOLETI :
  • 090900Z AUTO 29011KT 9999 FEW001/// BKN047/// ///TCU 07/05 Q1000 TEMPO 31025G40KT 3000 SHRA BKN020CB
  • 090830Z AUTO 27007KT 9999 FEW026/// BKN037/// BKN045/// ///TCU 07/05 Q0999 TEMPO 31025G40KT 3000 SHRA BKN020CB
  • 090800Z AUTO 25006KT 220V290 9999 -RA SCT019/// BKN029/// BKN034/// ///TCU 07/06 Q0998 TEMPO 31025G40KT 3000 SHRA BKN020CB
  • 090730Z AUTO 20007KT 9999 -RA FEW021/// BKN029/// BKN037/// ///TCU 07/05 Q0997 TEMPO 31025G40KT 3000 SHRA BKN020CB
  • 090700Z AUTO 19007KT 9999 4800 -RA BKN026/// BKN032/// BKN040/// ///TCU 07/05 Q0996 TEMPO 25020G35KT 3000 SHRA BKN025CB

TAF TAF LFQQ
Valido dal 09 a 06 ore il 10 a 12 ore UTC


090500Z 0906/1012 25015G25KT 9999 BKN025
TEMPO 0906/0909 25020G35KT 3000 SHRA BKN025CB
BECMG 0909/0911 31020G30KT
TEMPO 0909/0917 31025G40KT 3000 SHRA BKN020CB
BECMG 0917/0919 31017KT
BECMG 0921/0924 VRB02KT
BECMG 1008/1010 18015KT
BECMG 1010/1012 18015G25KT
ATIS : +33 3 20 16 19 54



MetMap, La meteo Aeronautica in un colpo d'occhio ! - Copyright ORBIFLY Dicembre 2007 - Disclaimer

ORBIFLY MET'MAP TEAM :

Programmazione e sviluppo : Alexandra Zaïnal
Concezione : Baudouin d'Aumeries
Aiuto per la programmazione : Marc-Olivier Méhu
Supporto tecnico e logistico : Manuel Goepfert
Aiuto per la traduzione : Arnaldo La Scala

Contatto : metmap@orbifly.com




FONTI E CREDITI :

   NOAA